createdAt,value
2018-08-06T00:00:54.809Z,98253.25
2018-08-06T00:03:23.615Z,98251.25
2018-08-06T00:05:52.596Z,98255.74
2018-08-06T00:08:21.405Z,98251.70
2018-08-06T00:10:50.158Z,98249.05
2018-08-06T00:13:19.068Z,98253.11
2018-08-06T00:15:47.761Z,98244.21
2018-08-06T00:18:16.608Z,98246.83
2018-08-06T00:20:45.454Z,98254.36
2018-08-06T00:23:14.201Z,98257.02
2018-08-06T00:25:43.157Z,98260.02
2018-08-06T00:28:11.830Z,98255.44
2018-08-06T00:30:40.605Z,98255.07
2018-08-06T00:33:09.356Z,98258.50
2018-08-06T00:35:38.197Z,98251.43
2018-08-06T00:38:06.846Z,98248.97
2018-08-06T00:40:35.498Z,98251.34
2018-08-06T00:43:04.222Z,98243.48
2018-08-06T00:45:32.985Z,98242.31
2018-08-06T00:48:01.793Z,98233.08
2018-08-06T00:50:30.501Z,98234.70
2018-08-06T00:52:59.382Z,98231.77
2018-08-06T00:55:28.061Z,98234.80
2018-08-06T00:57:56.823Z,98227.30
2018-08-06T01:00:25.541Z,98224.34
2018-08-06T01:02:54.345Z,98224.28
2018-08-06T01:05:23.366Z,98227.30
2018-08-06T01:07:52.553Z,98226.95
2018-08-06T01:10:21.222Z,98229.47
2018-08-06T01:12:50.106Z,98226.30
2018-08-06T01:15:19.505Z,98228.69
2018-08-06T01:17:48.308Z,98220.15
2018-08-06T01:20:17.106Z,98228.38
2018-08-06T01:22:46.274Z,98231.13
2018-08-06T01:25:15.658Z,98231.64
2018-08-06T01:27:44.561Z,98232.44
2018-08-06T01:30:14.992Z,98226.86
2018-08-06T01:32:43.977Z,98228.08
2018-08-06T01:35:13.104Z,98221.68
2018-08-06T01:37:41.865Z,98226.70
2018-08-06T01:40:13.892Z,98216.16
2018-08-06T01:42:42.744Z,98226.83
2018-08-06T01:45:14.213Z,98223.75
2018-08-06T01:47:42.914Z,98229.05
2018-08-06T01:50:13.179Z,98223.20
2018-08-06T01:52:42.709Z,98227.83
2018-08-06T01:55:11.681Z,98227.30
2018-08-06T01:57:40.593Z,98231.78
2018-08-06T02:00:12.801Z,98229.98
2018-08-06T02:02:42.198Z,98227.51
2018-08-06T02:05:11.448Z,98227.08
2018-08-06T02:07:40.852Z,98222.02
2018-08-06T02:10:12.405Z,98222.88
2018-08-06T02:12:41.706Z,98219.28
2018-08-06T02:15:11.449Z,98216.86
2018-08-06T02:17:40.517Z,98221.22
2018-08-06T02:20:11.418Z,98221.38
2018-08-06T02:22:40.113Z,98221.05
2018-08-06T02:25:10.080Z,98218.58
2018-08-06T02:27:38.756Z,98219.98
2018-08-06T02:30:13.483Z,98221.19
2018-08-06T02:32:43.416Z,98220.72
2018-08-06T02:35:14.114Z,98222.08
2018-08-06T02:37:43.441Z,98218.23
2018-08-06T02:40:16.657Z,98217.22
2018-08-06T02:42:46.145Z,98214.23
2018-08-06T02:45:14.918Z,98219.79
2018-08-06T02:47:43.818Z,98218.78
2018-08-06T02:50:13.029Z,98219.72
2018-08-06T02:52:43.124Z,98224.84
2018-08-06T02:55:15.446Z,98224.73
2018-08-06T02:57:44.217Z,98216.41
2018-08-06T03:00:15.839Z,98216.30
2018-08-06T03:02:46.190Z,98212.13
2018-08-06T03:05:16.619Z,98214.14
2018-08-06T03:07:46.026Z,98217.50
2018-08-06T03:10:14.766Z,98212.27
2018-08-06T03:12:44.634Z,98214.76
2018-08-06T03:15:13.690Z,98214.69
2018-08-06T03:17:42.829Z,98216.30
2018-08-06T03:20:12.913Z,98216.77
2018-08-06T03:22:41.891Z,98220.52
2018-08-06T03:25:13.054Z,98213.21
2018-08-06T03:27:42.359Z,98213.21
2018-08-06T03:30:13.394Z,98212.20
2018-08-06T03:32:42.931Z,98213.93
2018-08-06T03:35:12.635Z,98219.22
2018-08-06T03:37:41.440Z,98216.27
2018-08-06T03:40:11.118Z,98214.89
2018-08-06T03:42:39.898Z,98210.13
2018-08-06T03:45:10.458Z,98212.47
2018-08-06T03:47:39.832Z,98218.19
2018-08-06T03:50:09.970Z,98209.27
2018-08-06T03:52:39.471Z,98208.58
2018-08-06T03:55:09.612Z,98207.68
2018-08-06T03:57:38.584Z,98208.17
2018-08-06T04:00:09.791Z,98205.69
2018-08-06T04:02:38.629Z,98207.08
2018-08-06T04:05:09.573Z,98201.25
2018-08-06T04:07:38.602Z,98204.16
2018-08-06T04:10:08.571Z,98204.05
2018-08-06T04:12:37.358Z,98205.28
2018-08-06T04:15:08.295Z,98217.56
2018-08-06T04:17:37.078Z,98210.25
2018-08-06T04:20:07.228Z,98210.97
2018-08-06T04:22:35.882Z,98212.31
2018-08-06T04:25:04.917Z,98212.55
2018-08-06T04:27:33.790Z,98218.02
2018-08-06T04:30:02.752Z,98214.83
2018-08-06T04:32:31.461Z,98218.72
2018-08-06T04:35:00.172Z,98218.93
2018-08-06T04:37:29.165Z,98223.80
2018-08-06T04:39:57.927Z,98227.77
2018-08-06T04:42:26.600Z,98232.31
2018-08-06T04:44:55.275Z,98234.91
2018-08-06T04:47:24.022Z,98244.60
2018-08-06T04:49:52.725Z,98240.36
2018-08-06T04:52:21.551Z,98243.61
2018-08-06T04:54:50.886Z,98247.50
2018-08-06T04:57:19.585Z,98244.48
2018-08-06T04:59:48.541Z,98243.33
2018-08-06T05:02:17.251Z,98246.39
2018-08-06T05:04:46.013Z,98244.95
2018-08-06T05:07:14.873Z,98233.03
2018-08-06T05:09:44.934Z,98240.55
2018-08-06T05:12:13.828Z,98240.70
2018-08-06T05:14:42.532Z,98236.20
2018-08-06T05:17:11.428Z,98241.63
2018-08-06T05:19:40.198Z,98237.41
2018-08-06T05:22:09.089Z,98245.55
2018-08-06T05:24:37.864Z,98248.59
2018-08-06T05:27:06.967Z,98242.05
2018-08-06T05:29:36.116Z,98248.86
2018-08-06T05:32:05.246Z,98248.57
2018-08-06T05:34:33.995Z,98250.05
2018-08-06T05:37:03.050Z,98254.80
2018-08-06T05:39:32.999Z,98249.36
2018-08-06T05:42:02.288Z,98259.42
2018-08-06T05:44:31.294Z,98254.52
2018-08-06T05:47:00.142Z,98255.23
2018-08-06T05:49:29.505Z,98254.11
2018-08-06T05:51:58.458Z,98258.65
2018-08-06T05:54:27.267Z,98250.38
2018-08-06T05:56:56.048Z,98260.14
2018-08-06T05:59:25.050Z,98261.43
2018-08-06T06:01:53.810Z,98264.38
2018-08-06T06:04:22.726Z,98265.33
2018-08-06T06:06:51.515Z,98261.00
2018-08-06T06:09:20.542Z,98259.31
2018-08-06T06:11:49.270Z,98258.03
2018-08-06T06:14:18.035Z,98258.34
2018-08-06T06:16:46.818Z,98255.93
2018-08-06T06:19:15.683Z,98263.31
2018-08-06T06:21:44.397Z,98264.50
2018-08-06T06:24:13.140Z,98262.03
2018-08-06T06:26:41.828Z,98264.50
2018-08-06T06:29:10.602Z,98262.03
2018-08-06T06:31:39.286Z,98264.28
2018-08-06T06:34:08.108Z,98260.80
2018-08-06T06:36:36.837Z,98260.24
2018-08-06T06:39:09.960Z,98267.46
2018-08-06T06:41:39.145Z,98265.56
2018-08-06T06:44:08.675Z,98263.07
2018-08-06T06:46:38.066Z,98263.34
2018-08-06T06:49:06.890Z,98258.84
2018-08-06T06:51:35.674Z,98258.95
2018-08-06T06:54:04.479Z,98256.12
2018-08-06T06:56:33.215Z,98259.20
2018-08-06T06:59:02.032Z,98252.45
2018-08-06T07:01:30.761Z,98248.58
2018-08-06T07:03:59.904Z,98240.08
2018-08-06T07:06:29.045Z,98237.00
2018-08-06T07:08:57.807Z,98230.75
2018-08-06T07:11:26.579Z,98227.27
2018-08-06T07:13:55.679Z,98223.28
2018-08-06T07:16:24.472Z,98228.75
2018-08-06T07:18:53.286Z,98227.13
2018-08-06T07:21:22.114Z,98221.80
2018-08-06T07:23:50.943Z,98224.67
2018-08-06T07:26:19.997Z,98225.72
2018-08-06T07:28:49.017Z,98221.91
2018-08-06T07:31:17.881Z,98222.66
2018-08-06T07:33:46.585Z,98217.36
2018-08-06T07:36:15.421Z,98214.67
2018-08-06T07:38:44.198Z,98209.52
2018-08-06T07:41:13.582Z,98209.79
2018-08-06T07:43:43.094Z,98205.48
2018-08-06T07:46:11.726Z,98202.14
2018-08-06T07:48:40.506Z,98209.11
2018-08-06T07:51:09.350Z,98206.64
2018-08-06T07:53:38.278Z,98201.16
2018-08-06T07:56:07.581Z,98199.81
2018-08-06T07:58:36.410Z,98193.61
2018-08-06T08:01:05.162Z,98190.15
2018-08-06T08:03:34.558Z,98187.86
2018-08-06T08:06:03.621Z,98194.02
2018-08-06T08:08:32.487Z,98187.02
2018-08-06T08:11:01.212Z,98188.20
2018-08-06T08:13:30.330Z,98185.07
2018-08-06T08:15:59.081Z,98182.39
2018-08-06T08:18:28.287Z,98181.80
2018-08-06T08:20:57.262Z,98184.11
2018-08-06T08:23:26.061Z,98185.75
2018-08-06T08:26:00.005Z,98185.39
2018-08-06T08:28:28.899Z,98178.68
2018-08-06T08:30:57.669Z,98177.72
2018-08-06T08:33:27.333Z,98182.88
2018-08-06T08:35:56.041Z,98174.20
2018-08-06T08:38:24.947Z,98177.55
2018-08-06T08:40:53.820Z,98167.12
2018-08-06T08:43:22.757Z,98168.69
2018-08-06T08:45:51.653Z,98173.03
2018-08-06T08:48:20.365Z,98165.91
2018-08-06T08:50:49.386Z,98160.00
2018-08-06T08:53:18.414Z,98151.88
2018-08-06T08:55:47.420Z,98146.70
2018-08-06T08:58:16.521Z,98145.73
2018-08-06T09:00:45.335Z,98146.53
2018-08-06T09:03:14.266Z,98132.67
2018-08-06T09:05:43.044Z,98129.27
2018-08-06T09:08:11.790Z,98134.13
2018-08-06T09:10:40.549Z,98132.69
2018-08-06T09:13:09.467Z,98130.30
2018-08-06T09:15:38.160Z,98125.92
2018-08-06T09:18:07.024Z,98122.70
2018-08-06T09:20:35.802Z,98121.30
2018-08-06T09:23:04.462Z,98122.02
2018-08-06T09:25:33.206Z,98120.52
2018-08-06T09:28:02.072Z,98122.92
2018-08-06T09:30:30.733Z,98120.88
2018-08-06T09:32:59.570Z,98122.83
2018-08-06T09:35:28.308Z,98116.07
2018-08-06T09:37:57.117Z,98119.92
2018-08-06T09:40:25.808Z,98117.41
2018-08-06T09:42:54.698Z,98109.31
2018-08-06T09:45:23.801Z,98116.85
2018-08-06T09:47:53.803Z,98104.26
2018-08-06T09:50:23.325Z,98102.08
2018-08-06T09:52:53.468Z,98103.23
2018-08-06T09:55:24.863Z,98099.52
2018-08-06T09:57:54.186Z,98101.05
2018-08-06T10:00:28.717Z,98100.26
2018-08-06T10:02:59.155Z,98091.38
2018-08-06T10:05:30.466Z,98087.03
2018-08-06T10:07:59.328Z,98090.00
2018-08-06T10:10:28.187Z,98089.02
2018-08-06T10:12:56.950Z,98089.36
2018-08-06T10:15:25.867Z,98080.45
2018-08-06T10:17:55.767Z,98079.39
2018-08-06T10:20:25.854Z,98075.16
2018-08-06T10:22:55.150Z,98069.79
2018-08-06T10:25:23.862Z,98064.75
2018-08-06T10:27:52.858Z,98073.33
2018-08-06T10:30:22.881Z,98065.41
2018-08-06T10:32:51.656Z,98065.63
2018-08-06T10:35:21.318Z,98066.48
2018-08-06T10:37:50.050Z,98062.25
2018-08-06T10:40:21.254Z,98061.38
2018-08-06T10:42:50.311Z,98063.06
2018-08-06T10:45:20.317Z,98049.90
2018-08-06T10:47:49.656Z,98053.97
2018-08-06T10:50:18.691Z,98053.95
2018-08-06T10:52:47.845Z,98043.11
2018-08-06T10:55:16.600Z,98041.30
2018-08-06T10:57:46.315Z,98032.31
2018-08-06T11:00:20.438Z,98039.58
2018-08-06T11:02:49.734Z,98031.52
2018-08-06T11:05:19.561Z,98034.87
2018-08-06T11:07:48.571Z,98033.05
2018-08-06T11:10:19.947Z,98030.80
2018-08-06T11:12:48.733Z,98020.47
2018-08-06T11:15:19.361Z,98030.55
2018-08-06T11:17:56.706Z,98023.59
2018-08-06T11:20:25.516Z,98011.87
2018-08-06T11:22:54.415Z,98010.31
2018-08-06T11:25:24.727Z,98006.19
2018-08-06T11:27:53.434Z,97996.11
2018-08-06T11:30:23.302Z,97999.78
2018-08-06T11:32:53.240Z,98000.98
2018-08-06T11:35:22.022Z,98005.58
2018-08-06T11:37:50.901Z,98000.52
2018-08-06T11:40:19.962Z,98004.74
2018-08-06T11:42:49.071Z,97996.52
2018-08-06T11:45:19.010Z,97990.06
2018-08-06T11:47:48.038Z,97976.66
2018-08-06T11:50:17.118Z,97976.55
2018-08-06T11:52:46.426Z,97974.22
2018-08-06T11:55:15.185Z,97972.67
2018-08-06T11:57:44.542Z,97966.94
2018-08-06T12:00:18.857Z,97965.30
2018-08-06T12:02:47.590Z,97963.45
2018-08-06T12:05:16.658Z,97956.22
2018-08-06T12:07:45.528Z,97957.55
2018-08-06T12:10:16.337Z,97955.17
2018-08-06T12:12:46.059Z,97957.42
2018-08-06T12:15:15.400Z,97951.53
2018-08-06T12:17:44.505Z,97945.70
2018-08-06T12:20:16.802Z,97943.75
2018-08-06T12:22:46.820Z,97947.23
2018-08-06T12:25:16.608Z,97939.86
2018-08-06T12:27:46.364Z,97940.97
2018-08-06T12:30:19.039Z,97932.20
2018-08-06T12:32:48.738Z,97932.80
2018-08-06T12:35:18.168Z,97928.23
2018-08-06T12:37:47.535Z,97929.86
2018-08-06T12:40:17.697Z,97931.55
2018-08-06T12:42:47.121Z,97929.41
2018-08-06T12:45:16.801Z,97923.85
2018-08-06T12:47:46.301Z,97922.34
2018-08-06T12:50:16.020Z,97918.80
2018-08-06T12:52:45.146Z,97912.67
2018-08-06T12:55:15.442Z,97912.98
2018-08-06T12:57:44.980Z,97907.64
2018-08-06T13:00:19.893Z,97904.41
2018-08-06T13:02:49.689Z,97896.17
2018-08-06T13:05:19.913Z,97900.00
2018-08-06T13:07:49.153Z,97898.39
2018-08-06T13:10:18.016Z,97899.91
2018-08-06T13:12:46.913Z,97893.33
2018-08-06T13:15:16.506Z,97893.61
2018-08-06T13:17:45.609Z,97886.47
2018-08-06T13:20:14.781Z,97878.20
2018-08-06T13:22:43.905Z,97875.52
2018-08-06T13:25:13.441Z,97876.78
2018-08-06T13:27:42.210Z,97873.78
2018-08-06T13:30:13.465Z,97869.05
2018-08-06T13:32:43.477Z,97875.89
2018-08-06T13:35:13.427Z,97876.21
2018-08-06T13:37:42.218Z,97869.83
2018-08-06T13:40:12.071Z,97865.28
2018-08-06T13:42:41.236Z,97863.17
2018-08-06T13:45:12.542Z,97860.34
2018-08-06T13:47:41.611Z,97856.11
2018-08-06T13:50:11.849Z,97850.83
2018-08-06T13:52:40.829Z,97844.69
2018-08-06T13:55:11.522Z,97841.45
2018-08-06T13:57:40.779Z,97844.00
2018-08-06T14:00:17.540Z,97835.09
2018-08-06T14:02:46.623Z,97830.19
2018-08-06T14:05:16.604Z,97826.35
2018-08-06T14:07:49.244Z,97821.77
2018-08-06T14:10:18.747Z,97819.45
2018-08-06T14:12:47.924Z,97811.17
2018-08-06T14:15:16.853Z,97816.34
2018-08-06T14:17:45.622Z,97825.06
2018-08-06T14:20:16.127Z,97819.38
2018-08-06T14:22:45.149Z,97816.03
2018-08-06T14:25:14.226Z,97813.52
2018-08-06T14:27:43.112Z,97807.62
2018-08-06T14:30:14.998Z,97805.05
2018-08-06T14:32:44.613Z,97802.06
2018-08-06T14:35:14.125Z,97797.48
2018-08-06T14:37:42.847Z,97794.42
2018-08-06T14:40:14.477Z,97792.48
2018-08-06T14:42:43.610Z,97791.45
2018-08-06T14:45:12.380Z,97791.64
2018-08-06T14:47:41.258Z,97787.65
2018-08-06T14:50:13.040Z,97790.79
2018-08-06T14:52:42.100Z,97783.25
2018-08-06T14:55:10.916Z,97778.54
2018-08-06T14:57:40.839Z,97777.45
2018-08-06T15:00:15.129Z,97775.28
2018-08-06T15:02:44.518Z,97770.52
2018-08-06T15:05:13.298Z,97771.84
2018-08-06T15:07:42.253Z,97767.86
2018-08-06T15:10:12.759Z,97762.84
2018-08-06T15:12:42.040Z,97765.84
2018-08-06T15:15:14.298Z,97762.89
2018-08-06T15:17:43.585Z,97757.95
2018-08-06T15:20:15.205Z,97754.22
2018-08-06T15:22:44.166Z,97747.17
2018-08-06T15:25:16.503Z,97744.27
2018-08-06T15:27:45.325Z,97738.50
2018-08-06T15:30:13.994Z,97741.36
2018-08-06T15:32:43.265Z,97739.64
2018-08-06T15:35:12.882Z,97734.99
2018-08-06T15:37:42.721Z,97728.95
2018-08-06T15:40:17.326Z,97725.48
2018-08-06T15:42:46.250Z,97716.92
2018-08-06T15:45:15.348Z,97724.23
2018-08-06T15:47:45.016Z,97726.60
2018-08-06T15:50:18.835Z,97724.06
2018-08-06T15:52:47.649Z,97724.96
2018-08-06T15:55:16.822Z,97725.12
2018-08-06T15:57:45.631Z,97728.41
2018-08-06T16:00:16.789Z,97721.21
2018-08-06T16:02:46.054Z,97719.04
2018-08-06T16:05:15.331Z,97716.03
2018-08-06T16:07:45.702Z,97713.78
2018-08-06T16:10:14.993Z,97719.38
2018-08-06T16:12:43.798Z,97713.03
2018-08-06T16:15:13.703Z,97717.45
2018-08-06T16:17:43.725Z,97715.39
2018-08-06T16:20:14.696Z,97709.72
2018-08-06T16:22:43.873Z,97711.30
2018-08-06T16:25:13.405Z,97708.34
2018-08-06T16:27:42.143Z,97708.02
2018-08-06T16:30:22.634Z,97704.00
2018-08-06T16:32:51.694Z,97705.23
2018-08-06T16:35:23.817Z,97703.47
2018-08-06T16:37:55.093Z,97702.27
2018-08-06T16:40:24.126Z,97707.98
2018-08-06T16:42:53.387Z,97700.80
2018-08-06T16:45:22.436Z,97701.83
2018-08-06T16:47:51.267Z,97703.22
2018-08-06T16:50:20.053Z,97697.33
2018-08-06T16:52:48.949Z,97695.45
2018-08-06T16:55:17.662Z,97696.68
2018-08-06T16:57:46.480Z,97700.52
2018-08-06T17:00:19.643Z,97692.66
2018-08-06T17:02:48.996Z,97694.34
2018-08-06T17:05:17.749Z,97696.06
2018-08-06T17:07:47.455Z,97698.85
2018-08-06T17:10:17.534Z,97698.08
2018-08-06T17:12:47.350Z,97694.70
2018-08-06T17:15:17.501Z,97697.09
2018-08-06T17:17:47.080Z,97696.86
2018-08-06T17:20:17.773Z,97686.78
2018-08-06T17:22:47.878Z,97687.25
2018-08-06T17:25:16.852Z,97695.17
2018-08-06T17:27:45.671Z,97691.48
2018-08-06T17:30:15.551Z,97684.41
2018-08-06T17:32:44.694Z,97687.48
2018-08-06T17:35:14.308Z,97688.78
2018-08-06T17:37:43.341Z,97689.48
2018-08-06T17:40:14.636Z,97695.68
2018-08-06T17:42:43.459Z,97689.58
2018-08-06T17:45:16.008Z,97687.09
2018-08-06T17:47:44.858Z,97683.27
2018-08-06T17:50:16.063Z,97688.36
2018-08-06T17:52:46.036Z,97687.78
2018-08-06T17:55:15.938Z,97688.08
2018-08-06T17:57:45.030Z,97686.72
2018-08-06T18:00:14.423Z,97689.08
2018-08-06T18:02:43.138Z,97692.59
2018-08-06T18:05:13.577Z,97685.84
2018-08-06T18:07:43.034Z,97692.08
2018-08-06T18:10:14.145Z,97698.91
2018-08-06T18:12:43.729Z,97697.42
2018-08-06T18:15:12.523Z,97699.78
2018-08-06T18:17:41.460Z,97700.81
2018-08-06T18:20:13.659Z,97708.59
2018-08-06T18:22:42.884Z,97705.41
2018-08-06T18:25:19.537Z,97710.68
2018-08-06T18:27:49.932Z,97706.26
2018-08-06T18:30:21.325Z,97718.10
2018-08-06T18:32:50.525Z,97721.41
2018-08-06T18:35:20.025Z,97717.32
2018-08-06T18:37:48.890Z,97721.56
2018-08-06T18:40:19.269Z,97724.06
2018-08-06T18:42:48.157Z,97727.25
2018-08-06T18:45:19.298Z,97726.14
2018-08-06T18:47:49.327Z,97728.81
2018-08-06T18:50:19.018Z,97731.28
2018-08-06T18:52:48.660Z,97733.30
2018-08-06T18:55:17.886Z,97732.70
2018-08-06T18:57:47.192Z,97734.63
2018-08-06T19:00:20.287Z,97738.79
2018-08-06T19:02:50.046Z,97736.82
2018-08-06T19:05:18.815Z,97745.39
2018-08-06T19:07:47.743Z,97741.97
2018-08-06T19:10:16.443Z,97745.64
2018-08-06T19:12:50.532Z,97743.70
2018-08-06T19:15:19.310Z,97745.13
2018-08-06T19:17:53.117Z,97747.03
2018-08-06T19:20:21.824Z,97744.04
2018-08-06T19:22:50.550Z,97749.08
2018-08-06T19:25:25.630Z,97750.59
2018-08-06T19:27:54.940Z,97756.80
2018-08-06T19:30:27.873Z,97752.37
2018-08-06T19:32:56.677Z,97755.44
2018-08-06T19:35:25.513Z,97765.20
2018-08-06T19:37:54.373Z,97764.91
2018-08-06T19:40:23.590Z,97758.06
2018-08-06T19:42:57.922Z,97763.48
2018-08-06T19:45:27.024Z,97761.98
2018-08-06T19:47:55.894Z,97764.36
2018-08-06T19:50:40.784Z,97757.75
2018-08-06T19:53:09.564Z,97759.59
2018-08-06T19:55:43.487Z,97760.13
2018-08-06T19:58:12.849Z,97765.18
2018-08-06T20:00:41.725Z,97770.78
2018-08-06T20:03:10.553Z,97774.02
2018-08-06T20:05:39.536Z,97772.88
2018-08-06T20:08:08.415Z,97773.30
2018-08-06T20:10:37.172Z,97771.17
2018-08-06T20:13:06.286Z,97772.60
2018-08-06T20:15:35.157Z,97771.68
2018-08-06T20:18:03.882Z,97775.05
2018-08-06T20:20:32.628Z,97762.43
2018-08-06T20:23:01.323Z,97771.55
2018-08-06T20:25:30.189Z,97767.78
2018-08-06T20:27:59.489Z,97770.36
2018-08-06T20:30:28.209Z,97774.55
2018-08-06T20:32:57.114Z,97773.58
2018-08-06T20:35:25.873Z,97765.88
2018-08-06T20:37:54.918Z,97765.32
2018-08-06T20:40:23.645Z,97761.37
2018-08-06T20:42:52.390Z,97764.58
2018-08-06T20:45:22.105Z,97760.63
2018-08-06T20:47:51.006Z,97774.47
2018-08-06T20:50:22.186Z,97766.00
2018-08-06T20:52:52.172Z,97769.58
2018-08-06T20:55:20.927Z,97770.58
2018-08-06T20:57:50.364Z,97770.58
2018-08-06T21:00:21.446Z,97766.84
2018-08-06T21:02:50.869Z,97764.30
2018-08-06T21:05:19.870Z,97765.89
2018-08-06T21:07:48.930Z,97769.66
2018-08-06T21:10:18.497Z,97775.41
2018-08-06T21:12:47.821Z,97784.88
2018-08-06T21:15:16.645Z,97783.11
2018-08-06T21:17:45.741Z,97782.13
2018-08-06T21:20:15.851Z,97786.09
2018-08-06T21:22:45.708Z,97786.09
2018-08-06T21:25:14.919Z,97784.92
2018-08-06T21:27:45.256Z,97786.11
2018-08-06T21:30:16.144Z,97787.09
2018-08-06T21:32:59.855Z,97793.81
2018-08-06T21:35:29.376Z,97795.80
2018-08-06T21:37:58.193Z,97799.73
2018-08-06T21:40:27.931Z,97800.95
2018-08-06T21:42:56.582Z,97802.73
2018-08-06T21:45:25.314Z,97801.15
2018-08-06T21:47:54.082Z,97800.36
2018-08-06T21:50:22.908Z,97800.34
2018-08-06T21:52:51.703Z,97801.15
2018-08-06T21:55:20.481Z,97803.67
2018-08-06T21:57:49.211Z,97807.41
2018-08-06T22:00:25.962Z,97803.68
2018-08-06T22:02:54.762Z,97806.24
2018-08-06T22:05:23.504Z,97807.43
2018-08-06T22:07:52.170Z,97800.12
2018-08-06T22:10:20.955Z,97800.52
2018-08-06T22:12:49.841Z,97803.88
2018-08-06T22:15:18.617Z,97800.50
2018-08-06T22:17:47.562Z,97797.92
2018-08-06T22:20:16.318Z,97794.98
2018-08-06T22:22:45.597Z,97793.97
2018-08-06T22:25:14.433Z,97788.47
2018-08-06T22:27:43.441Z,97784.13
2018-08-06T22:30:12.928Z,97786.50
2018-08-06T22:32:41.776Z,97788.06
2018-08-06T22:35:12.538Z,97788.84
2018-08-06T22:37:42.594Z,97787.66
2018-08-06T22:40:15.145Z,97786.88
2018-08-06T22:42:44.133Z,97791.97
2018-08-06T22:45:13.427Z,97782.89
2018-08-06T22:47:43.525Z,97780.73
2018-08-06T22:50:13.890Z,97772.23
2018-08-06T22:52:42.959Z,97773.98
2018-08-06T22:55:12.940Z,97769.05
2018-08-06T22:57:42.521Z,97765.52
2018-08-06T23:00:13.823Z,97755.84
2018-08-06T23:02:43.481Z,97767.84
2018-08-06T23:05:13.908Z,97761.72
2018-08-06T23:07:43.240Z,97762.31
2018-08-06T23:10:14.946Z,97760.94
2018-08-06T23:12:44.313Z,97760.94
2018-08-06T23:15:15.829Z,97762.70
2018-08-06T23:17:45.585Z,97755.23
2018-08-06T23:20:14.615Z,97757.76
2018-08-06T23:22:43.449Z,97758.32
2018-08-06T23:25:12.602Z,97756.75
2018-08-06T23:27:41.358Z,97759.50
2018-08-06T23:30:12.974Z,97755.92
2018-08-06T23:32:42.044Z,97755.73
2018-08-06T23:35:12.382Z,97751.59
2018-08-06T23:37:42.517Z,97751.96
2018-08-06T23:40:12.299Z,97755.66
2018-08-06T23:42:41.914Z,97758.22
2018-08-06T23:45:11.882Z,97762.34
2018-08-06T23:47:41.440Z,97754.68
2018-08-06T23:50:12.257Z,97744.84
2018-08-06T23:52:43.130Z,97758.19
2018-08-06T23:55:13.557Z,97750.91
2018-08-06T23:57:42.623Z,97751.46
